Buchanan, MI (49107)

2:40 PM EDT on April 19, 2015 (GMT -0400)
MesoWest | | Change Station
CLOSE
Current Station
Personal Weather Station
Location: Berrien Springs, MI
Elevation: 748 ft
Nearby Weather Stations

Elev 748 ft 41.94 °N, 86.38 °W | Updated 40 minutes ago

Partly Cloudy
Partly Cloudy
70 °F
Feels Like 70 °F
N
13
Wind Variable Wind from ESE
Gusts 0.0 mph

Today
High -- | Low -- °F
--% Chance of Precip.
Yesterday
High -- | Low -- °F
Precip. -- in
6:59 AM 8:30 PM
New Moon, 1% visible
Pressure 29.70 in
Visibility 10.0 miles
Clouds Clear
Dew Point 34 °F
Humidity 27%
Rainfall in
Snow Depth Not available.
UV 10 out of 12
Pollen 6.20 out of 12
Air Quality Not available.
Flu Activity Regional
METAR KSBN 191754Z 11016G22KT 10SM CLR 20/03 A2970 RMK AO2 SLP056 T02000033 10211 20122 56042

More Conditions Fewer Conditions

Pressure 29.70 in
Visibility 10.0 miles
Clouds Clear
Dew Point 34 °F
Humidity 27%
Rainfall in
Snow Depth Not available.
UV 10 out of 12
Pollen 6.20 out of 12
Air Quality Not available.
Flu Activity Regional
METAR KSBN 191754Z 11016G22KT 10SM CLR 20/03 A2970 RMK AO2 SLP056 T02000033 10211 20122 56042

More Conditions Fewer Conditions

10-Day Weather Forecast

Almanac

Astronomy

Apr. 19, 2015 Rise Set
Actual Time
Civil Twilight
Nautical Twilight
Astronomical Twilight
Moon
Length of Visible Light
Length of Day
Tomorrow will be .
, % of the Moon is Illuminated

Today's Extremes

State Highs State Lows

Community

WunderPhotos

Upload Photos

1,814,908 photos uploaded!

WunderBlogs® & News

Nearby

Air Quality

  Air Quality AQ Index Pollutant
Not available.

Snow Depth

Station Depth Elevation

Earthquake Activity

City Distance Mag. Time & Date
Minimum magnitude displayed is 2.5.

Coastal Water Temperatures

Place Temperature

Stations

Nearby Weather Stations

Station Location Temp. Windchill Dew Point Humidity Wind Precip. Elev Updated Type